Time;durP1;ratioP1;P1;durP2;ratioP2;P2;SDS_P1;SDS_P2;PMS_P1;PMS_P2;Temp;Humidity;BMP_temperature;BMP_pressure;BME280_temperature;BME280_humidity;BME280_pressure;Samples;Min_cycle;Max_cycle;Signal;HPM_P1;HPM_P2
2022/02/21 00:00:44;;;;;;;1.53;0.80;;;6.60;99.90;;;;;;6345433;22;20224;-93
2022/02/21 00:03:20;;;;;;;1.97;0.70;;;6.60;99.90;;;;;;6360806;22;20184;-93
2022/02/21 00:05:51;;;;;;;1.40;0.70;;;6.60;99.90;;;;;;6361061;22;20179;-93
2022/02/21 00:08:22;;;;;;;1.90;0.87;;;6.60;99.90;;;;;;6361610;22;20174;-92
2022/02/21 00:10:53;;;;;;;1.67;0.63;;;6.70;99.90;;;;;;6363727;22;20168;-92
2022/02/21 00:13:24;;;;;;;1.43;0.70;;;6.70;99.90;;;;;;6366707;22;20161;-93
2022/02/21 00:15:55;;;;;;;2.17;1.00;;;6.70;99.90;;;;;;6366050;22;20217;-92
2022/02/21 00:18:28;;;;;;;1.43;0.40;;;6.60;99.90;;;;;;6355590;22;20284;-93
2022/02/21 00:20:58;;;;;;;0.70;0.67;;;6.30;99.90;;;;;;6355216;22;20165;-92
2022/02/21 00:23:29;;;;;;;0.77;0.50;;;6.30;99.90;;;;;;6354198;22;20166;-91
2022/02/21 00:26:01;;;;;;;0.93;0.67;;;6.20;99.90;;;;;;6348578;22;20177;-92
2022/02/21 00:28:32;;;;;;;1.20;0.67;;;6.10;99.90;;;;;;6353128;22;20177;-92
2022/02/21 00:31:04;;;;;;;3.50;0.40;;;6.10;99.90;;;;;;6357197;22;20181;-93
2022/02/21 00:33:39;;;;;;;0.73;0.50;;;6.00;99.90;;;;;;6361249;22;20178;-92
2022/02/21 00:36:10;;;;;;;1.67;0.60;;;5.80;99.90;;;;;;6355575;22;20166;-92
2022/02/21 00:38:41;;;;;;;0.77;0.60;;;5.70;99.90;;;;;;6364375;22;20189;-91
2022/02/21 00:41:12;;;;;;;2.90;1.00;;;5.80;99.90;;;;;;6362876;22;20226;-93
2022/02/21 00:43:44;;;;;;;1.30;0.93;;;5.80;99.90;;;;;;6357326;22;20177;-93
2022/02/21 00:46:16;;;;;;;1.50;0.67;;;5.90;99.90;;;;;;6359674;22;20725;-93
2022/02/21 00:48:49;;;;;;;0.67;0.40;;;5.80;99.90;;;;;;6359011;22;20200;-91
2022/02/21 00:51:21;;;;;;;1.30;0.63;;;5.70;99.90;;;;;;6349464;22;20193;-95
2022/02/21 00:53:52;;;;;;;1.03;0.60;;;5.50;99.90;;;;;;6326327;22;20162;-94
2022/02/21 00:56:23;;;;;;;1.07;0.70;;;5.50;99.90;;;;;;6351500;22;20207;-93
2022/02/21 00:58:54;;;;;;;1.10;0.67;;;5.60;99.90;;;;;;6350316;22;20206;-93
2022/02/21 01:01:25;;;;;;;1.27;0.70;;;5.60;99.90;;;;;;6350208;22;20185;-93
2022/02/21 01:03:57;;;;;;;1.27;1.07;;;5.50;99.90;;;;;;6350665;22;20174;-93
2022/02/21 01:06:31;;;;;;;3.67;1.40;;;5.50;99.90;;;;;;6348988;22;20184;-92
2022/02/21 01:09:02;;;;;;;1.17;1.07;;;5.40;99.90;;;;;;6345150;22;20199;-92
2022/02/21 01:11:33;;;;;;;2.60;1.23;;;5.30;99.90;;;;;;6359244;22;20166;-93
2022/02/21 01:14:05;;;;;;;1.70;1.37;;;5.30;99.90;;;;;;6353459;22;20173;-93
2022/02/21 01:16:36;;;;;;;2.77;2.20;;;5.20;99.90;;;;;;6359044;22;20185;-92
2022/02/21 01:19:13;;;;;;;3.60;1.80;;;5.20;99.90;;;;;;6358108;22;20193;-93
2022/02/21 01:21:44;;;;;;;1.70;1.60;;;5.10;99.90;;;;;;6354224;22;20173;-93
2022/02/21 01:24:15;;;;;;;3.73;1.70;;;5.10;99.90;;;;;;6354953;22;20158;-93
2022/02/21 01:26:46;;;;;;;1.83;1.60;;;5.00;99.90;;;;;;6360595;22;20169;-94
2022/02/21 01:29:18;;;;;;;1.90;1.60;;;5.00;99.90;;;;;;6361060;22;20180;-93
2022/02/21 01:31:49;;;;;;;1.70;1.40;;;5.00;99.90;;;;;;6363446;22;20166;-91
2022/02/21 01:34:22;;;;;;;1.83;1.10;;;4.90;99.90;;;;;;6363205;22;20170;-93
2022/02/21 01:36:53;;;;;;;2.40;1.23;;;4.90;99.90;;;;;;6358474;22;20166;-93
2022/02/21 01:39:24;;;;;;;2.23;1.43;;;4.90;99.90;;;;;;6358456;22;20664;-93
2022/02/21 01:41:55;;;;;;;1.77;1.20;;;4.90;99.90;;;;;;6359187;22;20230;-92
2022/02/21 01:44:37;;;;;;;1.53;1.17;;;4.90;99.90;;;;;;6357554;22;20249;-92
2022/02/21 01:47:12;;;;;;;2.03;1.10;;;4.90;99.90;;;;;;6358611;22;20184;-93
2022/02/21 01:49:47;;;;;;;1.60;1.00;;;4.80;99.90;;;;;;6358647;22;20222;-93
2022/02/21 01:52:20;;;;;;;1.17;1.07;;;4.70;99.90;;;;;;6357687;22;20166;-93
2022/02/21 01:54:53;;;;;;;1.17;1.00;;;4.70;99.90;;;;;;6359294;22;20209;-92
2022/02/21 01:57:27;;;;;;;1.27;1.10;;;4.70;99.90;;;;;;6360067;22;20189;-92
2022/02/21 01:59:58;;;;;;;1.13;1.03;;;4.70;99.90;;;;;;6357981;22;20201;-93
2022/02/21 02:02:29;;;;;;;1.27;0.90;;;4.60;99.90;;;;;;6358650;22;20181;-93
2022/02/21 02:05:04;;;;;;;2.23;0.80;;;4.70;99.90;;;;;;6357567;22;20177;-92
2022/02/21 02:07:35;;;;;;;1.23;0.70;;;4.70;99.90;;;;;;6362536;22;20165;-93
2022/02/21 02:10:07;;;;;;;1.40;1.00;;;4.60;99.90;;;;;;6362358;22;20242;-93
2022/02/21 02:12:38;;;;;;;0.90;0.80;;;4.40;99.90;;;;;;6357919;22;20177;-93
2022/02/21 02:15:14;;;;;;;2.83;0.97;;;4.40;99.90;;;;;;6357128;22;20173;-93
2022/02/21 02:17:45;;;;;;;2.27;1.03;;;4.40;99.90;;;;;;6358811;22;20177;-92
2022/02/21 02:20:19;;;;;;;3.13;2.30;;;4.50;99.90;;;;;;6359040;22;20220;-92
2022/02/21 02:22:52;;;;;;;3.00;2.20;;;4.50;99.90;;;;;;6359206;22;20165;-92
2022/02/21 02:25:24;;;;;;;1.30;1.20;;;4.60;99.90;;;;;;6364528;22;20166;-92
2022/02/21 02:27:55;;;;;;;1.83;1.37;;;4.60;99.90;;;;;;6340669;22;20169;-91
2022/02/21 02:30:26;;;;;;;1.57;1.10;;;4.60;99.90;;;;;;6366843;22;20177;-92
2022/02/21 02:32:58;;;;;;;0.83;0.80;;;4.50;99.90;;;;;;6366950;22;20164;-94
2022/02/21 02:35:32;;;;;;;1.27;0.90;;;4.50;99.90;;;;;;6365283;22;20166;-92
2022/02/21 02:38:05;;;;;;;1.63;1.10;;;4.50;99.90;;;;;;6364673;22;20201;-91
2022/02/21 02:40:37;;;;;;;3.13;0.97;;;4.40;99.90;;;;;;6357348;22;20196;-92
2022/02/21 02:43:09;;;;;;;0.93;0.93;;;4.40;99.90;;;;;;6358097;22;20174;-92
2022/02/21 02:45:45;;;;;;;1.03;0.87;;;4.40;99.90;;;;;;6360079;22;20194;-91
2022/02/21 02:48:16;;;;;;;2.30;1.40;;;4.40;99.90;;;;;;6358346;22;20177;-92
2022/02/21 02:50:48;;;;;;;1.03;0.93;;;4.40;99.90;;;;;;6354094;22;20173;-91
2022/02/21 02:53:21;;;;;;;1.17;1.07;;;4.30;99.90;;;;;;6351333;22;20162;-91
2022/02/21 02:55:52;;;;;;;2.70;1.43;;;4.30;99.90;;;;;;6354979;22;20174;-90
2022/02/21 02:58:23;;;;;;;1.30;1.00;;;4.30;99.90;;;;;;6353384;22;20183;-92
2022/02/21 03:00:54;;;;;;;1.83;1.27;;;4.30;99.90;;;;;;6346920;22;20190;-92
2022/02/21 03:03:25;;;;;;;1.40;1.30;;;4.30;99.90;;;;;;6343998;22;20162;-92
2022/02/21 03:05:56;;;;;;;1.67;1.43;;;4.30;99.90;;;;;;6345045;22;20234;-93
2022/02/21 03:08:30;;;;;;;1.67;1.30;;;4.40;99.90;;;;;;6344177;22;20174;-93
2022/02/21 03:11:01;;;;;;;2.57;1.80;;;4.40;99.90;;;;;;6344056;22;20178;-93
2022/02/21 03:13:32;;;;;;;2.37;1.77;;;4.40;99.90;;;;;;6356426;22;20162;-93
2022/02/21 03:16:03;;;;;;;2.07;1.60;;;4.40;99.90;;;;;;6354621;22;20189;-94
2022/02/21 03:18:35;;;;;;;3.77;1.90;;;4.40;99.90;;;;;;6351413;22;20193;-93
2022/02/21 03:21:07;;;;;;;3.00;2.10;;;4.40;99.90;;;;;;6360982;22;20188;-93
2022/02/21 03:23:40;;;;;;;3.47;2.30;;;4.40;99.90;;;;;;6356956;22;20299;-92
2022/02/21 03:26:11;;;;;;;2.93;1.70;;;4.40;99.90;;;;;;6356210;22;20606;-93
2022/02/21 03:28:42;;;;;;;3.23;1.97;;;4.40;99.90;;;;;;6317576;22;20166;-93
2022/02/21 03:31:13;;;;;;;2.17;1.70;;;4.40;99.90;;;;;;6344173;22;20166;-92
2022/02/21 03:33:44;;;;;;;1.97;1.77;;;4.40;99.90;;;;;;6343323;22;20162;-93
2022/02/21 03:36:15;;;;;;;2.57;1.97;;;4.40;99.90;;;;;;6342919;22;20192;-92
2022/02/21 03:38:48;;;;;;;2.40;2.13;;;4.40;99.90;;;;;;6343664;22;20195;-94
2022/02/21 03:41:22;;;;;;;2.20;2.00;;;4.40;99.90;;;;;;6351183;22;20174;-93
2022/02/21 03:43:54;;;;;;;2.63;1.87;;;4.40;99.90;;;;;;6349597;22;20176;-93
2022/02/21 03:46:29;;;;;;;3.13;1.53;;;4.40;99.90;;;;;;6362319;22;20165;-93
2022/02/21 03:49:01;;;;;;;1.97;1.77;;;4.40;99.90;;;;;;6362342;22;20227;-93
2022/02/21 03:51:32;;;;;;;2.57;1.80;;;4.40;99.90;;;;;;6364228;22;20245;-93
2022/02/21 03:54:07;;;;;;;2.50;2.13;;;4.40;99.90;;;;;;6362761;22;20173;-93
2022/02/21 03:56:38;;;;;;;2.73;1.60;;;4.30;99.90;;;;;;6347766;22;20154;-92
2022/02/21 03:59:09;;;;;;;3.23;1.50;;;4.30;99.90;;;;;;6359182;22;20545;-93
2022/02/21 04:01:41;;;;;;;2.03;1.50;;;4.30;99.90;;;;;;6361732;22;20162;-93
2022/02/21 04:04:14;;;;;;;3.53;1.97;;;4.30;99.90;;;;;;6352797;22;20166;-94
2022/02/21 04:06:45;;;;;;;3.73;2.17;;;4.20;99.90;;;;;;6329047;22;20215;-95
2022/02/21 04:09:19;;;;;;;2.60;1.30;;;4.00;99.90;;;;;;6355589;22;20178;-94
2022/02/21 04:11:51;;;;;;;1.97;1.27;;;3.90;99.90;;;;;;6345189;22;20170;-93
2022/02/21 04:14:22;;;;;;;1.53;1.30;;;3.90;99.90;;;;;;6355901;22;20170;-93
2022/02/21 04:16:53;;;;;;;1.23;1.07;;;3.90;99.90;;;;;;6347627;22;20548;-92
2022/02/21 04:19:24;;;;;;;3.53;1.40;;;3.90;99.90;;;;;;6341666;22;20224;-92
2022/02/21 04:21:56;;;;;;;2.20;1.23;;;4.00;99.90;;;;;;6343078;22;20212;-93
2022/02/21 04:24:29;;;;;;;3.57;1.20;;;4.00;99.90;;;;;;6343771;22;20189;-93
2022/02/21 04:27:00;;;;;;;2.50;1.20;;;4.10;99.90;;;;;;6342532;22;20170;-93
2022/02/21 04:29:32;;;;;;;1.50;0.90;;;3.90;99.90;;;;;;6349581;22;20170;-93
2022/02/21 04:32:07;;;;;;;2.10;1.13;;;3.90;99.90;;;;;;6356640;22;20177;-93
2022/02/21 04:34:39;;;;;;;1.33;0.80;;;3.90;99.90;;;;;;6361221;22;20233;-93
2022/02/21 04:37:09;;;;;;;3.83;1.20;;;3.90;99.90;;;;;;6343668;22;20604;-93
2022/02/21 04:39:42;;;;;;;2.23;0.93;;;4.00;99.90;;;;;;6350651;22;20206;-93
2022/02/21 04:42:14;;;;;;;2.73;1.20;;;4.00;99.90;;;;;;6357139;22;20608;-93
2022/02/21 04:44:45;;;;;;;2.20;1.53;;;4.00;99.90;;;;;;6364108;22;20174;-93
2022/02/21 04:47:17;;;;;;;2.77;1.23;;;4.00;99.90;;;;;;6365829;22;20166;-94
2022/02/21 04:49:48;;;;;;;1.67;1.50;;;3.90;99.90;;;;;;6365241;22;20200;-93
2022/02/21 04:52:19;;;;;;;2.80;1.80;;;3.80;99.90;;;;;;6360350;22;20163;-93
2022/02/21 04:54:52;;;;;;;2.80;2.03;;;3.80;99.90;;;;;;6357559;22;20173;-94
2022/02/21 04:57:24;;;;;;;2.67;2.13;;;3.80;99.90;;;;;;6357695;22;20176;-93
2022/02/21 04:59:54;;;;;;;3.53;1.53;;;3.70;99.90;;;;;;6358175;22;20193;-93
2022/02/21 05:02:26;;;;;;;3.00;1.67;;;3.70;99.90;;;;;;6353318;22;20173;-94
2022/02/21 05:04:57;;;;;;;2.13;1.73;;;3.60;99.90;;;;;;6359532;22;20166;-93
2022/02/21 05:07:28;;;;;;;2.73;1.60;;;3.60;99.90;;;;;;6354808;22;20166;-93
2022/02/21 05:10:01;;;;;;;1.67;1.27;;;3.60;99.90;;;;;;6353984;22;20166;-93
2022/02/21 05:12:32;;;;;;;1.40;1.30;;;3.60;99.90;;;;;;6346756;22;20173;-93
2022/02/21 05:15:04;;;;;;;2.80;1.20;;;3.60;99.90;;;;;;6345802;22;20207;-93
2022/02/21 05:17:35;;;;;;;1.57;1.27;;;3.60;99.90;;;;;;6355975;22;20185;-93
2022/02/21 05:20:08;;;;;;;3.27;1.10;;;3.60;99.90;;;;;;6357484;22;20193;-93
2022/02/21 05:22:39;;;;;;;1.80;1.13;;;3.70;99.90;;;;;;6359605;22;20199;-93
2022/02/21 05:25:14;;;;;;;2.20;1.00;;;3.70;99.90;;;;;;6358901;22;20497;-93
2022/02/21 05:27:45;;;;;;;1.30;1.20;;;3.70;99.90;;;;;;6353689;22;20166;-93
2022/02/21 05:30:17;;;;;;;2.40;1.40;;;3.70;99.90;;;;;;6350842;22;20178;-93
2022/02/21 05:32:48;;;;;;;3.60;1.40;;;3.70;99.90;;;;;;6346588;22;20185;-93
2022/02/21 05:35:18;;;;;;;1.73;1.20;;;3.70;99.90;;;;;;6346825;22;20223;-92
2022/02/21 05:37:49;;;;;;;1.37;1.20;;;3.70;99.90;;;;;;6346679;22;20200;-93
2022/02/21 05:40:22;;;;;;;1.00;0.90;;;3.60;99.90;;;;;;6348671;22;20580;-93
2022/02/21 05:42:53;;;;;;;1.63;1.47;;;3.60;99.90;;;;;;6346796;22;20198;-92
2022/02/21 05:45:24;;;;;;;6.70;2.00;;;3.60;99.90;;;;;;6351754;22;20162;-93
2022/02/21 05:47:55;;;;;;;3.87;2.17;;;3.60;99.90;;;;;;6365128;22;20166;-93
2022/02/21 05:50:26;;;;;;;2.70;1.77;;;3.70;99.90;;;;;;6366269;22;20192;-93
2022/02/21 05:52:57;;;;;;;3.33;2.00;;;3.70;99.90;;;;;;6366546;22;20514;-92
2022/02/21 05:55:32;;;;;;;3.30;2.10;;;3.60;99.90;;;;;;6365589;22;20161;-92
2022/02/21 05:58:03;;;;;;;3.30;1.97;;;3.50;99.90;;;;;;6366422;22;20233;-93
2022/02/21 06:00:34;;;;;;;2.47;1.90;;;3.40;99.90;;;;;;6366101;22;20193;-91
2022/02/21 06:03:05;;;;;;;2.40;2.00;;;3.30;99.90;;;;;;6366227;22;20162;-93
2022/02/21 06:05:36;;;;;;;4.40;2.40;;;3.30;99.90;;;;;;6364694;22;20191;-94
2022/02/21 06:08:07;;;;;;;2.23;1.97;;;3.30;99.90;;;;;;6358554;22;20166;-92
2022/02/21 06:10:40;;;;;;;6.10;3.40;;;3.20;99.90;;;;;;6357940;22;20170;-92
2022/02/21 06:13:11;;;;;;;3.37;2.53;;;3.20;99.90;;;;;;6359062;22;20166;-92
2022/02/21 06:15:42;;;;;;;3.33;2.37;;;3.10;99.90;;;;;;6331556;22;20150;-93
2022/02/21 06:18:19;;;;;;;3.50;2.03;;;3.10;99.90;;;;;;6356010;22;20231;-94
2022/02/21 06:20:50;;;;;;;3.10;2.10;;;3.00;99.90;;;;;;6359948;22;20209;-92
2022/02/21 06:23:22;;;;;;;3.07;2.00;;;3.10;99.90;;;;;;6357825;22;20181;-92
2022/02/21 06:25:54;;;;;;;3.20;2.17;;;3.20;99.90;;;;;;6359592;22;20174;-93
2022/02/21 06:28:25;;;;;;;2.57;2.07;;;3.20;99.90;;;;;;6362796;22;20182;-91
2022/02/21 06:30:57;;;;;;;3.03;2.23;;;3.20;99.90;;;;;;6362164;22;20165;-92
2022/02/21 06:33:29;;;;;;;2.20;2.00;;;3.20;99.90;;;;;;6360032;22;20181;-93
2022/02/21 06:36:00;;;;;;;3.67;2.00;;;3.30;99.90;;;;;;6350900;22;20174;-93
2022/02/21 06:38:31;;;;;;;2.00;1.80;;;3.30;99.90;;;;;;6349473;22;20196;-93
2022/02/21 06:41:03;;;;;;;4.17;1.93;;;3.30;99.90;;;;;;6347821;22;20197;-92
2022/02/21 06:43:34;;;;;;;4.43;2.30;;;3.30;99.90;;;;;;6346429;22;20184;-93
2022/02/21 06:46:05;;;;;;;6.10;2.10;;;3.20;99.90;;;;;;6346624;22;20173;-93
2022/02/21 06:48:35;;;;;;;2.90;1.60;;;3.20;99.90;;;;;;6345945;22;20175;-92
2022/02/21 06:51:06;;;;;;;1.50;1.40;;;3.30;99.90;;;;;;6346848;22;20172;-93
2022/02/21 06:53:38;;;;;;;1.30;1.20;;;3.30;99.90;;;;;;6348530;22;20181;-93
2022/02/21 06:56:11;;;;;;;2.57;0.80;;;3.30;99.90;;;;;;6366413;22;20177;-92
2022/02/21 06:58:42;;;;;;;1.03;0.90;;;3.20;99.90;;;;;;6365691;22;20173;-93
2022/02/21 07:01:13;;;;;;;1.33;0.70;;;3.20;99.90;;;;;;6366579;22;20207;-93
2022/02/21 07:03:44;;;;;;;1.50;0.53;;;3.00;99.90;;;;;;6364551;22;20166;-94
2022/02/21 07:06:15;;;;;;;0.50;0.50;;;3.00;99.90;;;;;;6347649;22;20170;-95
2022/02/21 07:08:46;;;;;;;0.80;0.77;;;3.00;99.90;;;;;;6346497;22;20178;-93
2022/02/21 07:11:19;;;;;;;0.60;0.60;;;2.90;99.90;;;;;;6346733;22;20166;-93
2022/02/21 07:13:53;;;;;;;1.00;0.70;;;2.90;99.90;;;;;;6346320;22;20532;-95
2022/02/21 07:16:26;;;;;;;0.90;0.60;;;2.90;99.90;;;;;;6345700;22;20241;-94
2022/02/21 07:18:58;;;;;;;0.80;0.57;;;2.80;99.90;;;;;;6344512;22;20228;-94
2022/02/21 07:21:29;;;;;;;1.17;0.63;;;2.80;99.90;;;;;;6351971;22;20198;-94
2022/02/21 07:24:00;;;;;;;1.37;0.60;;;2.70;99.90;;;;;;6354680;22;20177;-94
2022/02/21 07:26:37;;;;;;;0.60;0.60;;;2.70;99.90;;;;;;6348665;22;20183;-93
2022/02/21 07:29:08;;;;;;;2.10;0.80;;;2.60;99.90;;;;;;6346024;22;20221;-93
2022/02/21 07:31:40;;;;;;;0.90;0.60;;;2.60;99.90;;;;;;6345721;22;20178;-94
2022/02/21 07:34:12;;;;;;;1.03;0.57;;;2.70;99.90;;;;;;6353051;22;20162;-94
2022/02/21 07:36:43;;;;;;;0.57;0.50;;;2.70;99.90;;;;;;6354909;22;20177;-96
2022/02/21 07:39:14;;;;;;;0.67;0.63;;;2.70;99.90;;;;;;6351922;22;20205;-94
2022/02/21 07:41:47;;;;;;;1.47;0.87;;;2.70;99.90;;;;;;6345355;22;20519;-94
2022/02/21 07:44:18;;;;;;;0.77;0.50;;;2.70;99.90;;;;;;6344430;22;20211;-94
2022/02/21 07:46:50;;;;;;;0.73;0.63;;;2.60;99.90;;;;;;6343886;22;20169;-94
2022/02/21 07:49:21;;;;;;;1.07;0.83;;;2.60;99.90;;;;;;6346237;22;20261;-91
2022/02/21 07:51:53;;;;;;;1.00;0.53;;;2.60;99.90;;;;;;6346361;22;20181;-94
2022/02/21 07:54:27;;;;;;;1.80;0.60;;;2.60;99.90;;;;;;6344825;22;20185;-94
2022/02/21 07:57:14;;;;;;;0.80;0.60;;;2.60;99.90;;;;;;6344819;22;20169;-95
2022/02/21 07:59:45;;;;;;;0.77;0.70;;;2.50;99.90;;;;;;6344577;22;20255;-94
2022/02/21 08:02:18;;;;;;;0.83;0.80;;;2.50;99.90;;;;;;6344014;22;20225;-95
2022/02/21 08:04:49;;;;;;;0.60;0.60;;;2.50;99.90;;;;;;6318195;22;20173;-93
2022/02/21 08:07:21;;;;;;;1.23;0.70;;;2.50;99.90;;;;;;6342763;22;20630;-94
2022/02/21 08:09:53;;;;;;;1.00;0.60;;;2.50;99.90;;;;;;6354434;22;20166;-94
2022/02/21 08:12:29;;;;;;;1.00;0.70;;;2.50;99.90;;;;;;6357250;22;20174;-92
2022/02/21 08:15:02;;;;;;;0.87;0.60;;;2.50;99.90;;;;;;6355054;22;20192;-94
2022/02/21 08:17:40;;;;;;;0.60;0.57;;;2.50;99.90;;;;;;6353376;22;20204;-93
2022/02/21 08:20:15;;;;;;;2.20;0.77;;;2.60;99.90;;;;;;6345451;22;20197;-94
2022/02/21 08:22:47;;;;;;;0.77;0.60;;;2.60;99.90;;;;;;6357386;22;20208;-92
2022/02/21 08:25:18;;;;;;;0.50;0.50;;;2.50;99.90;;;;;;6362846;22;20162;-92
2022/02/21 08:27:54;;;;;;;0.53;0.53;;;2.50;99.90;;;;;;6361875;22;20170;-94
2022/02/21 08:30:28;;;;;;;0.70;0.60;;;2.50;99.90;;;;;;6363086;22;20170;-93
2022/02/21 08:33:00;;;;;;;1.53;0.60;;;2.50;99.90;;;;;;6361662;22;20172;-93
2022/02/21 08:35:30;;;;;;;0.80;0.50;;;2.50;99.90;;;;;;6359887;22;20223;-93
2022/02/21 08:38:03;;;;;;;0.87;0.60;;;2.60;99.90;;;;;;6355435;22;20196;-93
2022/02/21 08:40:34;;;;;;;0.60;0.60;;;2.60;99.90;;;;;;6354059;22;20201;-93
2022/02/21 08:43:07;;;;;;;0.50;0.50;;;2.70;99.90;;;;;;6346248;22;20198;-92
2022/02/21 08:45:38;;;;;;;1.30;0.60;;;2.70;99.90;;;;;;6347236;22;20193;-91
2022/02/21 08:48:09;;;;;;;1.00;0.90;;;2.70;99.90;;;;;;6345907;22;20177;-94
2022/02/21 08:50:40;;;;;;;2.33;1.10;;;2.80;99.90;;;;;;6348016;22;20177;-94
2022/02/21 08:53:10;;;;;;;2.03;1.10;;;2.80;99.90;;;;;;6346161;22;20177;-93
2022/02/21 08:55:42;;;;;;;1.67;1.10;;;2.80;99.90;;;;;;6346318;22;20170;-93
2022/02/21 08:58:15;;;;;;;0.87;0.63;;;2.80;99.90;;;;;;6346042;22;20624;-93
2022/02/21 09:00:47;;;;;;;2.40;0.80;;;2.90;99.90;;;;;;6353386;22;20162;-92
2022/02/21 09:03:26;;;;;;;1.20;1.00;;;2.80;99.90;;;;;;6355154;22;20256;-92
2022/02/21 09:05:57;;;;;;;0.73;0.70;;;2.90;99.90;;;;;;6361051;22;20169;-89
2022/02/21 09:08:31;;;;;;;1.00;0.80;;;2.90;99.90;;;;;;6357202;22;20178;-92
2022/02/21 09:11:02;;;;;;;1.07;0.97;;;3.00;99.90;;;;;;6359347;22;20166;-92
2022/02/21 09:13:36;;;;;;;2.10;1.13;;;3.00;99.90;;;;;;6364099;22;20180;-92
2022/02/21 09:16:08;;;;;;;2.20;1.80;;;3.00;99.90;;;;;;6366312;22;20165;-91
2022/02/21 09:18:39;;;;;;;3.13;1.93;;;3.10;99.90;;;;;;6365870;22;20181;-91
2022/02/21 09:21:10;;;;;;;2.13;1.90;;;3.10;99.90;;;;;;6362760;22;20174;-92
2022/02/21 09:23:41;;;;;;;2.67;2.13;;;3.10;99.90;;;;;;6355332;22;20194;-93
2022/02/21 09:26:13;;;;;;;2.23;2.03;;;3.10;99.90;;;;;;6355543;22;20181;-92
2022/02/21 09:28:46;;;;;;;2.50;2.30;;;3.00;99.90;;;;;;6351870;22;20262;-92
2022/02/21 09:31:18;;;;;;;2.97;2.50;;;3.10;99.90;;;;;;6365055;22;20160;-93
2022/02/21 09:33:49;;;;;;;4.23;2.83;;;3.10;99.90;;;;;;6366449;22;20175;-92
2022/02/21 09:36:20;;;;;;;3.57;2.80;;;3.10;99.90;;;;;;6365095;22;20181;-93
2022/02/21 09:38:51;;;;;;;3.03;2.50;;;3.20;99.90;;;;;;6362037;22;20185;-92
2022/02/21 09:41:24;;;;;;;2.97;2.63;;;3.20;99.90;;;;;;6362843;22;20176;-91
2022/02/21 09:43:58;;;;;;;3.37;2.77;;;3.20;99.90;;;;;;6354147;22;20193;-91
2022/02/21 09:46:33;;;;;;;2.67;2.47;;;3.20;99.90;;;;;;6358153;22;20181;-92
2022/02/21 09:49:06;;;;;;;5.00;2.73;;;3.30;99.90;;;;;;6326573;22;20173;-94
2022/02/21 09:51:37;;;;;;;2.63;2.20;;;3.30;99.90;;;;;;6346049;22;20166;-93
2022/02/21 09:54:08;;;;;;;3.03;2.20;;;3.30;99.90;;;;;;6345284;22;20214;-93
2022/02/21 09:56:40;;;;;;;3.00;2.50;;;3.30;99.90;;;;;;6346577;22;20173;-92
2022/02/21 09:59:13;;;;;;;2.60;2.03;;;3.30;99.90;;;;;;6344390;22;20170;-94
2022/02/21 10:01:45;;;;;;;2.73;2.53;;;3.30;99.90;;;;;;6343981;22;20173;-92
2022/02/21 10:04:24;;;;;;;2.50;2.30;;;3.30;99.90;;;;;;6344025;22;20518;-89
2022/02/21 10:06:57;;;;;;;2.50;2.30;;;3.30;99.90;;;;;;6344706;22;20162;-93
2022/02/21 10:09:32;;;;;;;3.37;2.37;;;3.40;99.90;;;;;;6317974;22;21015;-93
2022/02/21 10:12:03;;;;;;;3.03;2.30;;;3.40;99.90;;;;;;6343920;22;20219;-92
2022/02/21 10:14:37;;;;;;;2.67;2.00;;;3.40;99.90;;;;;;6344320;22;20204;-92
2022/02/21 10:17:09;;;;;;;2.10;1.80;;;3.40;99.90;;;;;;6343167;22;20201;-92
2022/02/21 10:19:42;;;;;;;2.00;1.80;;;3.40;99.90;;;;;;6346166;22;20220;-92
2022/02/21 10:22:14;;;;;;;3.07;1.70;;;3.40;99.90;;;;;;6345484;22;20199;-93
2022/02/21 10:24:47;;;;;;;1.80;1.60;;;3.40;99.90;;;;;;6344801;22;20185;-93
2022/02/21 10:27:21;;;;;;;1.80;1.70;;;3.30;99.90;;;;;;6347736;22;20233;-92
2022/02/21 10:29:59;;;;;;;1.87;1.63;;;3.30;99.90;;;;;;6343549;22;20171;-92
2022/02/21 10:32:51;;;;;;;2.30;1.70;;;3.30;99.90;;;;;;6344030;22;20260;-92
2022/02/21 10:35:23;;;;;;;3.30;2.17;;;3.30;99.90;;;;;;6358533;22;20166;-92
2022/02/21 10:37:59;;;;;;;1.97;1.77;;;3.30;99.90;;;;;;6355666;22;20174;-92
2022/02/21 10:40:33;;;;;;;1.77;1.30;;;3.30;99.90;;;;;;6357504;22;20180;-93
2022/02/21 10:43:06;;;;;;;2.60;1.40;;;3.30;99.90;;;;;;6356423;22;20194;-93
2022/02/21 10:45:40;;;;;;;2.17;1.30;;;3.30;99.90;;;;;;6357041;22;20174;-93
2022/02/21 10:48:12;;;;;;;2.67;1.50;;;3.20;99.90;;;;;;6349300;22;20225;-93
2022/02/21 10:50:55;;;;;;;2.47;0.90;;;3.20;99.90;;;;;;6347837;22;20613;-93
2022/02/21 10:53:36;;;;;;;1.00;0.90;;;3.20;99.90;;;;;;6344345;22;20170;-93
2022/02/21 10:56:08;;;;;;;1.27;0.93;;;3.30;99.90;;;;;;6344218;22;20565;-94
2022/02/21 10:58:39;;;;;;;0.90;0.80;;;3.30;99.90;;;;;;6341549;22;20170;-92
2022/02/21 11:01:13;;;;;;;3.10;0.90;;;3.20;99.90;;;;;;6344365;22;20166;-93
2022/02/21 11:03:46;;;;;;;0.93;0.70;;;3.20;99.90;;;;;;6344136;22;20220;-93
2022/02/21 11:06:18;;;;;;;1.17;0.80;;;3.20;99.90;;;;;;6347191;22;20176;-93
2022/02/21 11:08:50;;;;;;;0.67;0.60;;;3.20;99.90;;;;;;6342126;22;20201;-93
2022/02/21 11:11:25;;;;;;;0.97;0.60;;;3.20;99.90;;;;;;6344166;22;20178;-92
2022/02/21 11:13:58;;;;;;;1.70;0.90;;;3.10;99.90;;;;;;6343891;22;20166;-93
2022/02/21 11:16:34;;;;;;;2.37;0.90;;;3.20;99.90;;;;;;6343345;22;20189;-92
2022/02/21 11:19:06;;;;;;;1.70;0.80;;;3.10;99.90;;;;;;6342625;22;20173;-92
2022/02/21 11:21:38;;;;;;;2.37;0.93;;;3.20;99.90;;;;;;6343923;22;20173;-92
2022/02/21 11:24:10;;;;;;;4.13;0.90;;;3.10;99.90;;;;;;6344498;22;20200;-93
2022/02/21 11:26:57;;;;;;;2.00;1.20;;;3.20;99.90;;;;;;6343833;22;20178;-93
2022/02/21 11:29:36;;;;;;;1.17;0.90;;;3.10;99.90;;;;;;6345289;22;20210;-92
2022/02/21 11:32:16;;;;;;;1.53;1.17;;;3.10;99.90;;;;;;6363779;22;20165;-92
2022/02/21 11:34:48;;;;;;;2.40;0.90;;;3.00;99.90;;;;;;6365279;22;20220;-92
2022/02/21 11:37:24;;;;;;;1.37;0.97;;;3.00;99.90;;;;;;6346917;22;20242;-92
2022/02/21 11:40:00;;;;;;;0.80;0.77;;;3.00;99.90;;;;;;6343710;22;20192;-93
2022/02/21 11:42:50;;;;;;;1.20;0.90;;;2.90;99.90;;;;;;6319666;22;20643;-92
2022/02/21 11:45:32;;;;;;;1.13;1.00;;;2.80;99.90;;;;;;6343779;22;20527;-92
2022/02/21 11:48:14;;;;;;;0.97;0.90;;;2.80;99.90;;;;;;6343162;22;20166;-93
2022/02/21 11:50:46;;;;;;;1.30;1.20;;;2.80;99.90;;;;;;6344235;22;20166;-92
2022/02/21 11:53:29;;;;;;;1.00;0.90;;;2.80;99.90;;;;;;6343517;22;20261;-92
2022/02/21 11:56:03;;;;;;;1.63;1.03;;;2.80;99.90;;;;;;6342818;22;20196;-92
2022/02/21 11:58:44;;;;;;;1.63;1.23;;;2.80;99.90;;;;;;6342824;22;20182;-91
2022/02/21 12:01:24;;;;;;;1.77;1.33;;;2.80;99.90;;;;;;6343314;22;20178;-93
2022/02/21 12:04:16;;;;;;;1.30;1.20;;;2.90;99.90;;;;;;6316571;22;20221;-93
2022/02/21 12:06:57;;;;;;;1.53;1.33;;;2.90;99.90;;;;;;6342876;22;20166;-93
2022/02/21 12:09:29;;;;;;;1.60;1.50;;;3.00;99.90;;;;;;6343691;22;20174;-92
2022/02/21 12:12:28;;;;;;;2.77;1.60;;;3.00;99.90;;;;;;6343158;22;20173;-92
2022/02/21 12:15:14;;;;;;;2.80;1.87;;;3.00;99.90;;;;;;6345072;22;20635;-91
2022/02/21 12:17:45;;;;;;;2.23;1.67;;;3.00;99.90;;;;;;6344315;22;20177;-92
2022/02/21 12:20:37;;;;;;;3.17;1.60;;;3.00;99.90;;;;;;6345989;22;20173;-93
2022/02/21 12:23:18;;;;;;;2.30;1.60;;;3.00;99.90;;;;;;6347350;22;20235;-92
2022/02/21 12:26:19;;;;;;;1.77;1.60;;;2.90;99.90;;;;;;6351617;22;20223;-92
2022/02/21 12:29:08;;;;;;;2.27;1.37;;;2.90;99.90;;;;;;6349151;22;20532;-93
2022/02/21 12:31:41;;;;;;;3.03;1.83;;;2.90;99.90;;;;;;6363792;22;20181;-93
2022/02/21 12:34:14;;;;;;;4.33;1.70;;;2.90;99.90;;;;;;6360956;22;20199;-92
2022/02/21 12:36:48;;;;;;;2.23;1.67;;;2.90;99.90;;;;;;6362097;22;20177;-95
2022/02/21 12:39:23;;;;;;;3.97;1.73;;;2.90;99.90;;;;;;6350772;22;20192;-93
2022/02/21 12:41:57;;;;;;;2.77;1.80;;;2.90;99.90;;;;;;6345182;22;20161;-92
2022/02/21 12:44:27;;;;;;;3.30;2.03;;;2.90;99.90;;;;;;6345183;22;20258;-93
2022/02/21 12:47:00;;;;;;;4.40;2.13;;;3.00;99.90;;;;;;6343514;22;20166;-93
2022/02/21 12:49:34;;;;;;;3.87;1.70;;;3.00;99.90;;;;;;6344514;22;20201;-93
2022/02/21 12:52:10;;;;;;;2.73;1.67;;;3.00;99.90;;;;;;6343921;22;20166;-93
2022/02/21 12:54:53;;;;;;;3.33;1.80;;;3.00;99.90;;;;;;6345368;22;20165;-93
2022/02/21 12:57:25;;;;;;;3.27;2.20;;;3.10;99.90;;;;;;6345225;22;20166;-93
2022/02/21 12:59:59;;;;;;;4.10;2.00;;;3.10;99.90;;;;;;6344998;22;20166;-94
2022/02/21 13:02:31;;;;;;;2.27;2.00;;;3.10;99.90;;;;;;6345014;22;20235;-93
2022/02/21 13:05:06;;;;;;;3.60;1.73;;;3.20;99.90;;;;;;6344283;22;20193;-93
2022/02/21 13:07:39;;;;;;;2.57;1.60;;;3.10;99.90;;;;;;6343552;22;20554;-91
2022/02/21 13:10:11;;;;;;;2.50;1.70;;;3.20;99.90;;;;;;6344044;22;20168;-93
2022/02/21 13:12:41;;;;;;;2.90;2.13;;;3.20;99.90;;;;;;6343405;22;20213;-91
2022/02/21 13:15:14;;;;;;;2.83;2.10;;;3.20;99.90;;;;;;6344463;22;20177;-92
2022/02/21 13:17:56;;;;;;;3.57;2.20;;;3.20;99.90;;;;;;6344379;22;20166;-92
2022/02/21 13:20:28;;;;;;;3.47;2.10;;;3.20;99.90;;;;;;6344585;22;20498;-93
2022/02/21 13:23:02;;;;;;;2.30;2.00;;;3.20;99.90;;;;;;6344332;22;20185;-92
2022/02/21 13:25:33;;;;;;;3.17;1.90;;;3.20;99.90;;;;;;6343707;22;20189;-93
2022/02/21 13:28:17;;;;;;;3.33;1.80;;;3.20;99.90;;;;;;6342618;22;20193;-93